Terminal Aerodrome Forecast
Issued by NWS

Home | Current Version | Previous Version | Text Only | Print | Product List | Glossary On
Versions: 1 2 3 4 5 6 7 8 9 10 11 12 13 14 15 16 17 18 19 20 21 22 23 24 25 26 27 28 29 30 31 32 33 34 35 36 37 38 39 40 41 42 43 44 45 46 47 48 49 50
000
FTUS41 KCTP 311540 AAA
TAFLNS
TAF AMD
KLNS 311540Z 3116/0112 26005KT P6SM FEW035
     FM311630 24006KT P6SM SCT040
     FM311900 24009KT P6SM VCSH BKN050
     FM312300 VRB04KT P6SM BKN060
     FM010900 VRB02KT 5SM BR SCT060=

USA.gov is the U.S. government's official web portal to all federal, state and local government web resources and services.